Česky Dansk Deutsch English Español Suomi Français Magyar Italiano Nederlands norsk Polski Português svenska Türkçe

 

Het Weer

Kemerovo (Rusland)

09:00, 19 augustus 2016 (GMT)

NWNNE
WE
SWSSE
Home            
Kemerovo Novokuznetsk Novosibirsk Barnaul Abakan Enisejsk Omsk Nizhneudinsk Nizhnevartovsk Bratsk / Irkutsk Surgut Karaganda Astana Hanty-Mansijsk Irkutsk Ust'Ordynskij Urum-Qi / Diwopu Yining Kirensk Ulan-Ude Kostanay Hami Almaty

Om een weerknop op uw website of weblog te plaatsen, copieer onderstaande code en plak die in uw pagina. In het eerste vakje staat HTML-code, in het tweede vakje UBB-code.


Add to Google

Details

Wind speed:2 bf, 5.8 kn, 3 m/s, 6.7 miles/h, 10.8 km/h
Wind direction:W, 280°
Visibility:Greater than 10000 m, 10 km, 32800 ft, 6.2 miles
Clouds:CAVOC
Temperature:22°C, 72°F
Gefühlte Temperatur:24°C, 76°F
Dew-point:15°C, 59°F
Atmospheric pressure:1015 hPa, 761.3 mmHg, 29.97 inHg, 1.002 atm
Relative humidity:64.5 %
METAR:UNEE 190900Z 28003MPS CAVOK 22/15 Q1015 R23/CLRD60 NOSIG RMK QFE738

Snelkoppelingen

Actuele weersinformatie van de hele wereld. Voeg locaties toe met het plus (+) symbool. Deze snelkoppelingen kunnen worden toegevoegd aan Google.

Lid van de Technetium groep

website free tracking
StatCounter NetStat W3C Validator

18-08-2019 05:15:05
astro.technetium.be money.technetium.be phote.technetium.be tafeltennistafel.technetium.be www.ligfiets.net